Terminal Aerodrome Forecast
Issued by NWS

Home | Current Version | Previous Version | Text Only | Print | Product List | Glossary On
Versions: 1 2 3 4 5 6 7 8 9 10 11 12 13 14 15 16
000
FTUS43 KIND 250211 AAA
TAFHUF
TAF AMD
KHUF 250211Z 2502/2524 19014G20KT P6SM SCT100 BKN250 WS020/23040KT
     FM250500 23008KT P6SM SCT200
     FM251100 30006KT P6SM FEW250
     FM251800 31010KT P6SM SKC=

USA.gov is the U.S. government's official web portal to all federal, state and local government web resources and services.